Time;durP1;ratioP1;P1;durP2;ratioP2;P2;SDS_P1;SDS_P2;PMS_P1;PMS_P2;Temp;Humidity;BMP_temperature;BMP_pressure;BME280_temperature;BME280_humidity;BME280_pressure;Samples;Min_cycle;Max_cycle;Signal;HPM_P1;HPM_P2
2023/04/11 00:01:23;;;;;;;9.80;2.00;;;5.10;99.90;;;;;;5031793;28;19921;-87
2023/04/11 00:03:58;;;;;;;5.50;1.77;;;6.30;99.90;;;;;;5032085;28;20125;-89
2023/04/11 00:06:32;;;;;;;9.15;1.80;;;5.80;99.90;;;;;;5032140;28;20090;-89
2023/04/11 00:08:59;;;;;;;8.77;2.10;;;;;;;;;;5014782;28;20103;-88
2023/04/11 00:11:37;;;;;;;8.57;2.10;;;5.70;99.90;;;;;;5015965;28;20505;-87
2023/04/11 00:14:21;;;;;;;10.47;2.20;;;7.00;99.90;;;;;;5033582;28;20052;-88
2023/04/11 00:17:00;;;;;;;9.30;2.45;;;6.40;99.90;;;;;;5034206;28;20053;-88
2023/04/11 00:19:27;;;;;;;9.90;2.30;;;5.50;99.90;;;;;;5017061;28;20042;-88
2023/04/11 00:21:57;;;;;;;7.67;1.73;;;5.80;99.90;;;;;;5016576;28;20052;-89
2023/04/11 00:24:59;;;;;;;7.83;2.00;;;6.20;99.90;;;;;;5016439;28;20056;-89
2023/04/11 00:27:25;;;;;;;7.85;1.85;;;5.70;99.90;;;;;;5034054;28;20049;-89
2023/04/11 00:30:08;;;;;;;8.90;2.00;;;6.60;99.90;;;;;;5033568;28;20455;-89
2023/04/11 00:32:34;;;;;;;10.32;2.28;;;6.40;99.90;;;;;;5016228;28;20059;-88
2023/04/11 00:35:00;;;;;;;9.70;2.20;;;6.00;99.90;;;;;;5014572;28;20089;-88
2023/04/11 00:37:54;;;;;;;9.33;2.17;;;6.50;99.90;;;;;;5016171;28;20092;-88
2023/04/11 00:40:32;;;;;;;10.05;2.10;;;5.90;99.90;;;;;;5016126;28;20073;-88
2023/04/11 00:42:58;;;;;;;6.37;1.80;;;5.50;99.90;;;;;;5033773;28;20524;-87
2023/04/11 00:45:42;;;;;;;10.53;1.93;;;5.30;99.90;;;;;;5033436;28;20041;-87
2023/04/11 00:48:27;;;;;;;8.07;2.10;;;7.20;99.90;;;;;;5034327;28;20045;-87
2023/04/11 00:50:53;;;;;;;11.27;2.00;;;4.90;99.90;;;;;;5015402;28;20417;-87
2023/04/11 00:53:38;;;;;;;8.00;1.87;;;5.40;99.90;;;;;;5033776;28;20046;-87
2023/04/11 00:56:12;;;;;;;8.47;2.20;;;6.60;99.90;;;;;;5033876;28;20099;-88
2023/04/11 01:02:41;;;;;;;10.93;2.07;;;5.30;99.90;;;;;;5033441;28;20385;-87
2023/04/11 01:05:19;;;;;;;7.83;2.10;;;7.20;99.90;;;;;;5032953;28;20041;-87
2023/04/11 01:08:04;;;;;;;8.47;2.50;;;5.50;99.90;;;;;;5018375;28;20049;-86
2023/04/11 01:10:45;;;;;;;10.07;2.30;;;5.60;99.90;;;;;;5042241;28;20049;-87
2023/04/11 01:13:34;;;;;;;8.70;2.43;;;6.40;99.90;;;;;;5040349;28;20106;-87
2023/04/11 01:16:20;;;;;;;10.37;2.77;;;6.50;99.90;;;;;;5015894;28;20073;-87
2023/04/11 01:18:47;;;;;;;11.47;3.07;;;6.60;99.90;;;;;;5021647;28;20117;-88
2023/04/11 01:21:20;;;;;;;9.90;2.50;;;6.70;99.90;;;;;;5025931;28;20053;-88
2023/04/11 01:23:57;;;;;;;10.43;3.15;;;5.60;99.90;;;;;;5034149;28;20095;-87
2023/04/11 01:26:23;;;;;;;10.80;2.80;;;6.60;99.90;;;;;;5015308;28;20056;-88
2023/04/11 01:31:31;;;;;;;12.73;3.10;;;5.80;99.90;;;;;;5559402;22;20060;-87
2023/04/11 01:34:26;;;;;;;9.27;2.77;;;6.20;99.90;;;;;;5014769;28;20107;-88
2023/04/11 01:37:10;;;;;;;9.63;2.70;;;5.80;99.90;;;;;;5014678;28;20049;-88
2023/04/11 01:39:36;;;;;;;8.43;2.67;;;5.50;99.90;;;;;;5014950;28;20507;-88
2023/04/11 01:42:18;;;;;;;16.80;3.00;;;6.20;99.90;;;;;;5032781;28;20048;-88
2023/04/11 01:44:54;;;;;;;9.33;2.73;;;5.20;99.90;;;;;;5033273;28;20476;-88
2023/04/11 01:47:41;;;;;;;11.80;2.50;;;6.90;99.90;;;;;;5032435;28;20037;-88
2023/04/11 01:50:07;;;;;;;10.03;2.80;;;7.20;99.90;;;;;;5015049;28;20408;-88
2023/04/11 01:52:49;;;;;;;13.30;2.70;;;5.50;99.90;;;;;;5014918;28;20102;-88
2023/04/11 01:55:15;;;;;;;10.93;2.77;;;5.40;99.90;;;;;;5014399;28;20061;-88
2023/04/11 01:57:59;;;;;;;10.53;3.00;;;7.10;99.90;;;;;;5015459;28;20052;-88
2023/04/11 02:00:28;;;;;;;11.93;3.10;;;7.40;99.90;;;;;;5015255;28;20042;-89
2023/04/11 02:02:59;;;;;;;11.90;3.33;;;5.80;99.90;;;;;;5031329;28;20049;-89
2023/04/11 02:06:19;;;;;;;;;;;;;;;;;;;;;
2023/04/11 02:09:49;;;;;;;13.17;3.23;;;6.90;99.90;;;;;;4998825;28;20085;-88
2023/04/11 02:12:15;;;;;;;11.37;3.17;;;5.70;99.90;;;;;;4936495;29;20146;-87
2023/04/11 02:14:49;;;;;;;16.13;3.30;;;6.40;99.90;;;;;;4975095;28;20132;-87
2023/04/11 02:17:29;;;;;;;13.23;3.50;;;5.70;99.90;;;;;;5015594;28;20053;-88
2023/04/11 02:27:01;;;;;;;12.07;3.60;;;6.80;99.90;;;;;;4991294;28;20048;-88
2023/04/11 02:29:30;;;;;;;16.67;3.43;;;6.10;99.90;;;;;;5017841;28;20493;-88
2023/04/11 02:31:56;;;;;;;13.87;3.60;;;7.20;99.90;;;;;;5033241;28;20060;-88
2023/04/11 02:35:28;;;;;;;12.27;4.17;;;6.30;99.90;;;;;;5021355;28;20049;-88
2023/04/11 02:38:09;;;;;;;15.40;3.90;;;5.80;99.90;;;;;;5056917;28;20050;-88
2023/04/11 02:40:35;;;;;;;16.57;3.83;;;5.80;99.90;;;;;;5052537;28;20045;-88
2023/04/11 02:43:32;;;;;;;16.07;4.30;;;6.60;99.90;;;;;;5032840;28;20038;-88
2023/04/11 02:45:59;;;;;;;17.13;3.97;;;6.20;99.90;;;;;;4958097;29;20160;-89
2023/04/11 02:49:09;;;;;;;16.10;3.93;;;6.10;99.90;;;;;;4952310;28;20066;-89
2023/04/11 02:51:50;;;;;;;16.73;4.10;;;5.80;99.90;;;;;;4944354;29;20050;-89
2023/04/11 02:54:48;;;;;;;16.30;4.27;;;7.90;99.90;;;;;;4955882;29;20066;-88
2023/04/11 02:57:29;;;;;;;20.83;4.67;;;5.40;99.90;;;;;;5054494;22;20049;-87
2023/04/11 03:00:05;;;;;;;16.57;4.73;;;6.10;99.90;;;;;;5016376;28;20042;-87
2023/04/11 03:03:28;;;;;;;18.43;4.57;;;6.80;99.90;;;;;;4998610;28;20041;-87
2023/04/11 03:05:57;;;;;;;16.97;4.30;;;5.90;99.90;;;;;;4997229;28;20058;-87
2023/04/11 03:08:29;;;;;;;22.10;4.37;;;6.60;99.90;;;;;;4998517;28;20115;-87
2023/04/11 03:14:50;;;;;;;21.40;5.40;;;7.90;99.90;;;;;;4955373;29;20047;-87
2023/04/11 03:17:39;;;;;;;17.93;5.37;;;6.60;99.90;;;;;;4958112;28;20055;-86
2023/04/11 03:20:27;;;;;;;14.07;3.60;;;6.50;99.90;;;;;;4954213;28;20177;-87
2023/04/11 03:23:03;;;;;;;;;;;;;;;;;;;;;
2023/04/11 03:26:07;;;;;;;18.87;4.13;;;6.00;99.90;;;;;;4994420;28;20054;-87
2023/04/11 03:28:33;;;;;;;;;;;6.40;99.90;;;;;;4998521;28;20049;-88
2023/04/11 03:31:29;;;;;;;14.83;3.50;;;6.20;99.90;;;;;;5015371;28;19921;-87
2023/04/11 03:34:09;;;;;;;16.57;3.87;;;6.50;99.90;;;;;;4997233;28;20062;-87
2023/04/11 03:36:47;;;;;;;17.70;3.90;;;8.10;99.90;;;;;;5015400;28;20053;-87
2023/04/11 03:39:13;;;;;;;17.30;3.40;;;6.50;99.90;;;;;;5013604;28;20395;-87
2023/04/11 03:44:51;;;;;;;17.27;3.93;;;6.60;99.90;;;;;;5038999;22;20041;-88
2023/04/11 03:47:29;;;;;;;15.17;3.60;;;6.80;99.90;;;;;;5015694;28;20053;-89
2023/04/11 03:50:28;;;;;;;14.57;4.77;;;7.40;99.90;;;;;;5016885;28;20489;-88
2023/04/11 03:52:53;;;;;;;14.67;4.43;;;7.30;99.90;;;;;;5034950;28;20046;-88
2023/04/11 03:55:37;;;;;;;15.93;4.10;;;6.70;99.90;;;;;;5015797;28;20043;-88
2023/04/11 03:58:08;;;;;;;21.75;4.10;;;6.30;99.90;;;;;;5016782;28;20378;-88
2023/04/11 04:00:33;;;;;;;16.60;4.10;;;7.60;99.90;;;;;;5016519;28;20060;-89
2023/04/11 04:06:47;;;;;;;20.17;3.80;;;6.30;99.90;;;;;;4992509;28;20101;-89
2023/04/11 04:09:28;;;;;;;15.60;3.50;;;7.20;99.90;;;;;;4975935;28;20042;-89
2023/04/11 04:12:09;;;;;;;10.93;2.60;;;6.40;99.90;;;;;;5006104;28;20038;-89
2023/04/11 04:14:34;;;;;;;12.32;3.00;;;6.60;99.90;;;;;;4987769;28;20042;-88
2023/04/11 04:17:00;;;;;;;16.93;3.03;;;6.80;99.90;;;;;;4999128;28;20118;-87
2023/04/11 04:19:29;;;;;;;14.50;2.87;;;6.80;99.90;;;;;;5039624;28;20045;-87
2023/04/11 04:25:27;;;;;;;12.07;2.90;;;6.10;99.90;;;;;;4987418;28;20068;-88
2023/04/11 04:28:08;;;;;;;16.57;3.43;;;6.70;99.90;;;;;;5034608;28;20127;-88
2023/04/11 04:31:28;;;;;;;12.03;3.33;;;7.50;99.90;;;;;;5034691;28;20053;-89
2023/04/11 04:35:06;;;;;;;13.63;3.97;;;6.20;99.90;;;;;;5034885;28;20053;-89
2023/04/11 04:37:38;;;;;;;13.57;3.00;;;7.00;99.90;;;;;;5034604;28;20087;-89
2023/04/11 04:40:19;;;;;;;10.82;3.35;;;6.60;99.90;;;;;;5017154;28;20060;-90
2023/04/11 04:45:18;;;;;;;14.10;3.15;;;7.00;99.90;;;;;;5032176;28;20045;-90
2023/04/11 04:54:08;;;;;;;13.63;3.90;;;7.00;99.90;;;;;;5201335;22;20068;-89
2023/04/11 04:56:48;;;;;;;14.05;3.83;;;6.10;99.90;;;;;;5017236;28;20080;-89
2023/04/11 04:59:48;;;;;;;11.23;3.17;;;7.10;99.90;;;;;;5016495;28;20045;-89
2023/04/11 05:02:15;;;;;;;14.68;3.40;;;6.90;99.90;;;;;;5021711;28;20047;-88
2023/04/11 05:04:49;;;;;;;14.25;3.35;;;7.30;99.90;;;;;;5017468;28;20041;-88
2023/04/11 05:07:27;;;;;;;11.57;3.20;;;6.50;99.90;;;;;;5015905;28;20533;-89
2023/04/11 05:14:33;;;;;;;13.63;3.30;;;7.00;99.90;;;;;;5016092;28;20045;-89
2023/04/11 05:22:00;;;;;;;16.77;4.40;;;7.00;99.90;;;;;;5200536;22;20057;-87
2023/04/11 05:24:29;;;;;;;14.77;3.30;;;8.60;99.90;;;;;;5013790;28;20401;-88
2023/04/11 05:30:54;;;;;;;19.02;3.90;;;7.10;99.90;;;;;;5013412;28;20615;-88
2023/04/11 05:33:26;;;;;;;14.13;3.60;;;7.30;99.90;;;;;;4995437;28;20544;-87
2023/04/11 05:35:55;;;;;;;13.70;3.97;;;7.20;99.90;;;;;;5009704;28;20026;-87
2023/04/11 05:38:36;;;;;;;12.57;3.57;;;8.90;99.90;;;;;;5037210;28;20034;-89
2023/04/11 05:41:01;;;;;;;11.55;2.95;;;7.30;99.90;;;;;;5019052;28;20038;-88
2023/04/11 05:43:27;;;;;;;11.63;3.30;;;7.70;99.90;;;;;;5006753;28;20080;-88
2023/04/11 05:46:24;;;;;;;12.57;3.57;;;7.30;99.90;;;;;;5009006;28;20116;-87
2023/04/11 05:48:50;;;;;;;11.90;3.40;;;7.20;99.90;;;;;;4995837;28;20046;-89
2023/04/11 05:51:21;;;;;;;10.17;3.37;;;7.50;99.90;;;;;;5020838;28;20042;-89
2023/04/11 05:59:23;;;;;;;21.03;10.20;;;7.30;99.90;;;;;;5774798;22;20054;-85
2023/04/11 06:02:07;;;;;;;21.02;10.07;;;7.40;99.90;;;;;;5006050;28;20050;-86
2023/04/11 06:05:32;;;;;;;18.08;10.00;;;8.30;99.90;;;;;;5005533;28;20046;-82
2023/04/11 06:15:31;;;;;;;15.27;7.22;;;7.60;99.90;;;;;;5031320;28;20369;-84
2023/04/11 06:18:06;;;;;;;14.85;7.78;;;8.70;99.90;;;;;;5014227;28;20042;-84
2023/04/11 06:20:32;;;;;;;16.05;6.50;;;7.00;99.90;;;;;;5032571;28;20061;-85
2023/04/11 06:22:59;;;;;;;12.75;5.18;;;7.00;99.90;;;;;;5215799;22;20042;-86
2023/04/11 06:25:30;;;;;;;14.18;5.28;;;8.90;99.90;;;;;;5011368;28;20053;-86
2023/04/11 06:49:36;;;;;;;10.32;3.42;;;7.00;99.90;;;;;;5032355;28;20144;-83
2023/04/11 06:52:39;;;;;;;11.90;3.63;;;7.40;99.90;;;;;;5014490;28;20378;-84
2023/04/11 06:55:45;;;;;;;13.43;5.15;;;7.50;99.90;;;;;;5012778;28;20374;-84
2023/04/11 07:10:18;;;;;;;11.68;3.03;;;7.80;99.90;;;;;;5028646;28;20060;-86
2023/04/11 07:12:59;;;;;;;12.23;3.22;;;7.80;99.90;;;;;;5020310;28;20045;-84
2023/04/11 07:15:52;;;;;;;16.30;3.50;;;7.60;99.90;;;;;;5034684;28;20050;-86
2023/04/11 07:18:33;;;;;;;10.67;2.90;;;7.40;99.90;;;;;;5020643;28;20103;-86
2023/04/11 07:21:05;;;;;;;12.80;3.00;;;8.00;99.90;;;;;;5017876;28;20643;-85
2023/04/11 07:25:56;;;;;;;13.13;2.70;;;8.10;99.90;;;;;;5044654;22;20055;-86
2023/04/11 07:28:22;;;;;;;14.27;3.08;;;8.80;99.90;;;;;;5034229;28;20378;-87
2023/04/11 07:31:06;;;;;;;12.05;2.40;;;7.80;99.90;;;;;;5017093;28;20052;-86
2023/04/11 07:33:51;;;;;;;14.75;4.32;;;8.10;99.90;;;;;;5034585;28;20049;-87
2023/04/11 07:36:33;;;;;;;12.90;4.45;;;8.00;99.90;;;;;;5002054;28;20396;-86
2023/04/11 07:39:14;;;;;;;12.05;4.03;;;7.80;99.90;;;;;;5033622;28;20493;-87
2023/04/11 07:46:10;;;;;;;10.93;2.70;;;8.50;99.90;;;;;;4992564;28;20093;-88
2023/04/11 07:48:46;;;;;;;11.95;4.63;;;7.80;99.90;;;;;;4992891;28;20077;-86
2023/04/11 07:51:15;;;;;;;13.73;3.70;;;9.50;99.90;;;;;;4994297;28;20093;-82
2023/04/11 07:53:44;;;;;;;12.38;4.28;;;9.80;99.90;;;;;;5010373;28;20405;-82
2023/04/11 07:56:10;;;;;;;19.50;11.38;;;9.80;99.90;;;;;;5016795;28;20052;-82
2023/04/11 07:58:36;;;;;;;11.82;3.20;;;8.30;99.90;;;;;;5017339;28;20045;-82
2023/04/11 08:01:02;;;;;;;12.77;2.55;;;8.30;99.90;;;;;;5033969;28;20038;-81
2023/04/11 08:03:28;;;;;;;11.45;2.70;;;8.30;99.90;;;;;;5017276;28;20045;-81
2023/04/11 08:05:54;;;;;;;11.25;2.83;;;8.30;99.90;;;;;;5034999;28;20045;-81
2023/04/11 08:08:20;;;;;;;12.88;3.35;;;8.40;99.90;;;;;;5016420;28;20057;-81
2023/04/11 08:10:49;;;;;;;13.75;3.42;;;8.50;99.90;;;;;;5034955;28;20041;-81
2023/04/11 08:13:15;;;;;;;12.75;2.70;;;8.70;99.90;;;;;;5034497;28;20052;-82
2023/04/11 08:15:40;;;;;;;9.20;2.35;;;8.70;99.90;;;;;;5034517;28;20037;-81
2023/04/11 08:18:06;;;;;;;13.07;3.00;;;9.90;99.90;;;;;;5034414;28;20397;-82
2023/04/11 08:20:31;;;;;;;10.25;2.50;;;8.80;99.90;;;;;;5033752;28;20037;-82
2023/04/11 08:22:58;;;;;;;10.77;2.90;;;9.50;99.90;;;;;;5034611;28;20050;-81
2023/04/11 08:25:23;;;;;;;13.05;2.33;;;9.00;99.90;;;;;;5016314;28;20064;-81
2023/04/11 08:27:49;;;;;;;10.25;2.63;;;9.10;99.90;;;;;;5016003;28;20042;-81
2023/04/11 08:30:16;;;;;;;9.27;2.30;;;9.40;99.90;;;;;;5034292;28;20049;-82
2023/04/11 08:32:42;;;;;;;10.00;2.50;;;9.30;99.90;;;;;;5013520;28;20131;-81
2023/04/11 08:35:08;;;;;;;9.90;2.15;;;9.30;99.90;;;;;;5021413;28;20034;-81
2023/04/11 08:37:34;;;;;;;10.25;2.15;;;9.20;99.90;;;;;;5018609;28;20057;-81
2023/04/11 08:39:59;;;;;;;10.05;2.30;;;9.30;99.90;;;;;;5026594;28;20128;-82
2023/04/11 08:42:27;;;;;;;10.48;2.20;;;9.50;99.90;;;;;;5016235;28;20400;-82
2023/04/11 08:44:57;;;;;;;10.88;2.38;;;9.40;99.90;;;;;;5033678;28;20042;-82
2023/04/11 08:47:23;;;;;;;10.32;2.08;;;10.30;99.90;;;;;;5033015;28;20128;-81
2023/04/11 08:49:49;;;;;;;8.23;2.00;;;9.40;99.90;;;;;;5005525;28;20077;-82
2023/04/11 08:52:18;;;;;;;9.90;2.15;;;9.40;99.90;;;;;;5026614;28;20537;-82
2023/04/11 08:54:44;;;;;;;8.80;2.10;;;9.50;99.90;;;;;;5026584;28;20053;-82
2023/04/11 08:57:13;;;;;;;7.03;1.93;;;9.60;99.90;;;;;;5006662;28;20102;-83
2023/04/11 08:59:50;;;;;;;11.23;2.22;;;9.40;99.90;;;;;;5003520;28;20145;-83
2023/04/11 09:02:15;;;;;;;10.43;2.00;;;9.30;99.90;;;;;;5022344;28;20057;-83
2023/04/11 09:04:42;;;;;;;8.82;2.00;;;9.30;99.90;;;;;;5025545;28;20045;-82
2023/04/11 09:07:10;;;;;;;12.20;2.30;;;9.20;99.90;;;;;;5011358;28;20126;-83
2023/04/11 09:09:38;;;;;;;9.00;1.98;;;9.00;99.90;;;;;;5029420;28;20064;-83
2023/04/11 09:12:04;;;;;;;12.85;2.10;;;9.90;99.90;;;;;;5015373;28;20049;-83
2023/04/11 09:14:30;;;;;;;14.05;2.58;;;9.40;99.90;;;;;;5033468;28;20125;-82
2023/04/11 09:16:57;;;;;;;10.50;2.38;;;9.50;99.90;;;;;;5032859;28;20107;-83
2023/04/11 09:19:25;;;;;;;8.63;2.42;;;10.20;99.90;;;;;;5015674;28;20061;-83
2023/04/11 09:21:55;;;;;;;9.70;2.20;;;10.60;99.90;;;;;;5009791;28;20046;-82
2023/04/11 09:24:25;;;;;;;9.43;2.60;;;9.60;99.90;;;;;;5023551;28;20046;-82
2023/04/11 09:27:06;;;;;;;9.80;2.28;;;10.50;99.90;;;;;;5026673;28;20049;-82
2023/04/11 09:29:45;;;;;;;12.65;2.30;;;9.50;99.90;;;;;;5031124;28;20038;-82
2023/04/11 09:32:33;;;;;;;11.60;3.05;;;9.20;99.90;;;;;;5026040;28;20449;-83
2023/04/11 09:35:19;;;;;;;9.95;2.10;;;9.10;99.90;;;;;;4995685;22;20062;-81
2023/04/11 09:37:49;;;;;;;8.93;2.20;;;8.80;99.90;;;;;;4983797;28;20494;-81
2023/04/11 09:40:17;;;;;;;8.23;2.05;;;8.30;99.90;;;;;;4987103;28;20053;-82
2023/04/11 09:42:44;;;;;;;13.70;3.13;;;8.20;99.90;;;;;;5002272;28;20406;-81
2023/04/11 09:45:17;;;;;;;9.40;2.00;;;8.10;99.90;;;;;;4984783;28;20038;-82
2023/04/11 09:47:44;;;;;;;8.25;2.28;;;8.30;99.90;;;;;;4995762;28;20072;-82
2023/04/11 09:50:10;;;;;;;10.00;2.40;;;9.10;99.90;;;;;;4995496;28;20046;-82
2023/04/11 09:52:44;;;;;;;9.35;2.60;;;8.40;99.90;;;;;;4995204;28;20429;-83
2023/04/11 09:55:15;;;;;;;11.43;2.85;;;8.50;99.90;;;;;;4995625;28;20041;-83
2023/04/11 09:57:46;;;;;;;11.45;3.17;;;8.70;99.90;;;;;;4989673;28;20069;-82
2023/04/11 10:00:33;;;;;;;10.55;3.08;;;9.10;99.90;;;;;;5001063;28;20510;-82
2023/04/11 10:02:59;;;;;;;9.60;2.28;;;9.00;99.90;;;;;;4983321;28;20050;-84
2023/04/11 10:05:29;;;;;;;10.27;2.60;;;9.10;99.90;;;;;;4984107;28;20057;-81
2023/04/11 10:08:02;;;;;;;9.18;2.38;;;10.70;99.90;;;;;;4986437;28;20050;-83
2023/04/11 10:10:29;;;;;;;10.20;2.30;;;9.80;99.90;;;;;;4997434;28;20490;-83
2023/04/11 10:12:54;;;;;;;10.68;2.30;;;9.90;99.90;;;;;;5008770;28;20064;-82
2023/04/11 10:15:21;;;;;;;9.25;2.20;;;10.20;99.90;;;;;;5001800;28;20069;-82
2023/04/11 10:18:06;;;;;;;10.88;2.35;;;10.40;99.90;;;;;;5004210;28;20137;-82
2023/04/11 10:20:34;;;;;;;13.77;3.40;;;10.60;99.90;;;;;;5011663;28;20050;-82
2023/04/11 10:23:01;;;;;;;11.00;2.50;;;10.40;99.90;;;;;;4999978;28;20057;-83
2023/04/11 10:25:27;;;;;;;9.68;2.40;;;9.90;99.90;;;;;;4986047;28;20101;-82
2023/04/11 10:27:59;;;;;;;9.85;2.60;;;9.20;99.90;;;;;;4983309;28;20046;-81
2023/04/11 10:30:40;;;;;;;8.43;3.00;;;8.40;99.90;;;;;;4999890;28;20038;-81
2023/04/11 10:33:12;;;;;;;10.00;2.42;;;8.00;99.90;;;;;;4975731;28;20050;-83
2023/04/11 10:36:08;;;;;;;8.13;2.25;;;8.00;99.90;;;;;;4975440;28;20502;-82
2023/04/11 10:38:40;;;;;;;10.80;4.03;;;7.90;99.90;;;;;;4976503;28;20050;-83
2023/04/11 10:41:16;;;;;;;10.70;3.08;;;8.50;99.90;;;;;;4992307;28;20046;-83
2023/04/11 10:43:42;;;;;;;12.93;3.55;;;9.20;99.90;;;;;;4975715;28;20093;-84
2023/04/11 10:46:25;;;;;;;11.60;3.83;;;8.30;99.90;;;;;;4975584;28;20066;-82
2023/04/11 10:49:03;;;;;;;13.65;2.55;;;8.50;99.90;;;;;;4993497;28;20042;-84
2023/04/11 10:51:30;;;;;;;10.70;3.40;;;8.60;99.90;;;;;;4981420;28;20145;-82
2023/04/11 10:53:58;;;;;;;11.40;2.60;;;8.70;99.90;;;;;;5018327;28;20041;-84
2023/04/11 10:56:45;;;;;;;11.47;3.10;;;8.90;99.90;;;;;;5017582;28;20512;-84
2023/04/11 10:59:29;;;;;;;11.80;2.57;;;9.20;99.90;;;;;;5014598;28;20077;-84
2023/04/11 11:01:55;;;;;;;;;;;10.00;99.90;;;;;;4993633;28;20049;-82
2023/04/11 11:04:30;;;;;;;12.00;3.70;;;9.50;99.90;;;;;;5002342;28;19921;-82
2023/04/11 11:06:56;;;;;;;11.70;4.05;;;9.90;99.90;;;;;;5009053;28;20497;-81
2023/04/11 11:09:22;;;;;;;10.38;3.00;;;10.00;99.90;;;;;;5006939;28;20469;-82
2023/04/11 11:12:05;;;;;;;8.93;2.40;;;9.70;99.90;;;;;;4986278;28;20046;-83
2023/04/11 11:14:31;;;;;;;9.13;2.83;;;9.30;99.90;;;;;;5003682;28;20038;-81
2023/04/11 11:16:57;;;;;;;10.98;2.47;;;9.80;99.90;;;;;;5005377;28;20092;-82
2023/04/11 11:19:22;;;;;;;9.73;2.30;;;9.60;99.90;;;;;;5005949;28;20116;-82
2023/04/11 11:21:50;;;;;;;10.00;2.22;;;10.00;99.90;;;;;;5004453;28;20566;-82
2023/04/11 11:24:23;;;;;;;8.55;2.13;;;10.20;99.90;;;;;;4986528;28;20039;-82
2023/04/11 11:26:49;;;;;;;13.20;2.28;;;10.60;99.90;;;;;;5004746;28;20074;-82
2023/04/11 11:29:15;;;;;;;13.57;2.47;;;11.50;99.90;;;;;;4988528;28;20086;-81
2023/04/11 11:31:44;;;;;;;9.23;2.33;;;10.80;99.90;;;;;;5004571;28;20046;-81
2023/04/11 11:34:10;;;;;;;9.40;2.20;;;11.70;99.90;;;;;;5003679;28;20101;-82
2023/04/11 11:36:42;;;;;;;10.48;2.30;;;10.80;99.90;;;;;;4989769;28;20077;-82
2023/04/11 11:39:09;;;;;;;10.27;2.15;;;10.90;99.90;;;;;;4990496;28;20075;-82
2023/04/11 11:41:37;;;;;;;12.13;2.28;;;11.40;99.90;;;;;;5004772;28;20051;-82
2023/04/11 11:44:03;;;;;;;10.80;2.35;;;11.50;99.90;;;;;;4989355;28;20046;-82
2023/04/11 11:46:32;;;;;;;12.45;2.58;;;11.80;99.90;;;;;;4995387;28;20045;-83
2023/04/11 11:48:59;;;;;;;10.82;2.38;;;11.40;99.90;;;;;;5011196;28;20060;-81
2023/04/11 11:51:25;;;;;;;9.32;2.20;;;11.20;99.90;;;;;;5003996;28;20053;-83
2023/04/11 11:54:02;;;;;;;10.70;2.10;;;11.00;99.90;;;;;;4992062;28;20050;-82
2023/04/11 11:56:28;;;;;;;11.52;2.20;;;11.40;99.90;;;;;;4992261;28;20045;-82
2023/04/11 11:58:54;;;;;;;10.02;2.10;;;11.90;99.90;;;;;;5011288;28;20135;-83
2023/04/11 12:01:21;;;;;;;9.52;1.80;;;13.30;99.90;;;;;;4988951;28;20046;-82
2023/04/11 12:03:50;;;;;;;8.88;1.88;;;11.90;99.90;;;;;;5003361;28;20570;-83
2023/04/11 12:06:19;;;;;;;10.60;2.10;;;12.90;99.90;;;;;;4986679;28;20046;-83
2023/04/11 12:08:52;;;;;;;8.40;2.08;;;12.50;99.90;;;;;;5005123;28;20478;-83
2023/04/11 12:11:18;;;;;;;14.85;2.63;;;11.60;99.90;;;;;;5004405;28;20050;-83
2023/04/11 12:13:44;;;;;;;13.43;2.88;;;11.60;99.90;;;;;;5003018;28;20038;-83
2023/04/11 12:16:10;;;;;;;11.50;2.35;;;11.90;99.90;;;;;;5004657;28;20050;-82
2023/04/11 12:18:40;;;;;;;12.85;2.30;;;13.00;99.90;;;;;;5166896;22;20575;-82
2023/04/11 12:21:06;;;;;;;9.48;2.33;;;13.00;99.90;;;;;;5022076;28;20137;-83
2023/04/11 12:23:31;;;;;;;9.48;2.10;;;12.50;99.90;;;;;;5022775;28;20537;-83
2023/04/11 12:25:57;;;;;;;8.90;2.03;;;12.20;99.90;;;;;;5011197;28;20046;-83
2023/04/11 12:31:13;;;;;;;8.68;1.98;;;12.20;99.90;;;;;;5001782;28;20050;-83
2023/04/11 12:34:23;;;;;;;10.63;2.40;;;10.90;99.90;;;;;;4997157;28;20490;-82
2023/04/11 12:36:51;;;;;;;9.85;2.05;;;11.30;99.90;;;;;;4979791;28;20066;-82
2023/04/11 12:39:37;;;;;;;10.32;2.30;;;13.20;99.90;;;;;;4996817;28;20046;-82
2023/04/11 12:42:37;;;;;;;9.88;2.17;;;12.90;99.90;;;;;;5011599;28;20038;-84
2023/04/11 12:45:07;;;;;;;11.90;2.30;;;13.20;99.90;;;;;;5005880;28;20049;-84
2023/04/11 12:47:52;;;;;;;13.30;2.45;;;12.00;99.90;;;;;;4979403;28;20042;-84
2023/04/11 12:50:33;;;;;;;10.30;2.25;;;13.30;99.90;;;;;;4992909;28;20038;-82
2023/04/11 12:53:04;;;;;;;9.63;2.63;;;13.50;99.90;;;;;;5010253;28;20501;-83
2023/04/11 12:55:42;;;;;;;10.40;2.30;;;12.90;99.90;;;;;;5015024;28;20441;-83
2023/04/11 12:58:08;;;;;;;10.55;2.60;;;12.70;99.90;;;;;;5015837;28;20128;-83
2023/04/11 13:00:34;;;;;;;11.13;2.55;;;14.10;99.90;;;;;;5033249;28;20496;-82
2023/04/11 13:03:00;;;;;;;11.98;2.90;;;14.20;99.90;;;;;;5015315;28;20042;-82
2023/04/11 13:05:26;;;;;;;9.68;2.50;;;13.10;99.90;;;;;;5035837;28;20053;-82
2023/04/11 13:07:51;;;;;;;12.15;2.88;;;13.00;99.90;;;;;;5016527;28;20120;-82
2023/04/11 13:10:17;;;;;;;9.20;2.45;;;12.40;99.90;;;;;;5015064;28;20485;-82
2023/04/11 13:12:43;;;;;;;9.63;2.25;;;12.50;99.90;;;;;;5024929;28;20045;-83
2023/04/11 13:15:14;;;;;;;11.68;3.00;;;13.40;99.90;;;;;;5027541;28;20187;-82
2023/04/11 13:17:41;;;;;;;8.80;2.35;;;11.90;99.90;;;;;;5020023;28;20393;-83
2023/04/11 13:20:08;;;;;;;11.52;2.65;;;12.20;99.90;;;;;;5013997;28;20049;-84
2023/04/11 13:22:38;;;;;;;13.00;3.95;;;12.10;99.90;;;;;;5014741;28;20496;-83
2023/04/11 13:25:04;;;;;;;9.85;2.70;;;12.20;99.90;;;;;;4996150;28;20401;-84
2023/04/11 13:27:30;;;;;;;13.35;4.80;;;12.50;99.90;;;;;;5014068;28;20108;-85
2023/04/11 13:29:56;;;;;;;12.30;3.17;;;13.20;99.90;;;;;;4995632;28;20112;-84
2023/04/11 13:32:22;;;;;;;10.90;2.80;;;11.90;99.90;;;;;;5003869;28;20057;-83
2023/04/11 13:34:47;;;;;;;9.43;2.20;;;11.60;99.90;;;;;;5003016;28;20458;-83
2023/04/11 13:37:13;;;;;;;9.32;2.50;;;11.60;99.90;;;;;;4987578;28;20037;-83
2023/04/11 13:39:38;;;;;;;8.88;2.42;;;11.50;99.90;;;;;;4990621;28;20501;-83
2023/04/11 13:42:04;;;;;;;10.82;3.35;;;11.70;99.90;;;;;;4987096;28;20038;-83
2023/04/11 13:44:29;;;;;;;10.45;2.83;;;11.50;99.90;;;;;;4984427;28;20066;-84
2023/04/11 13:46:55;;;;;;;9.88;2.55;;;12.20;99.90;;;;;;4997189;28;20045;-86
2023/04/11 13:49:21;;;;;;;11.07;3.45;;;11.90;99.90;;;;;;4986683;28;20042;-84
2023/04/11 13:51:48;;;;;;;10.35;3.05;;;11.60;99.90;;;;;;4987810;28;20128;-84
2023/04/11 13:54:13;;;;;;;12.98;5.30;;;11.30;99.90;;;;;;5012135;28;20443;-85
2023/04/11 13:56:40;;;;;;;9.40;2.38;;;11.70;99.90;;;;;;4995644;28;20466;-84
2023/04/11 13:59:05;;;;;;;11.15;3.10;;;12.00;99.90;;;;;;4994572;28;20045;-84
2023/04/11 14:01:31;;;;;;;11.40;3.35;;;12.00;99.90;;;;;;4995818;28;20076;-83
2023/04/11 14:03:57;;;;;;;11.15;2.25;;;11.70;99.90;;;;;;4994890;28;20038;-83
2023/04/11 14:06:22;;;;;;;10.60;2.63;;;12.00;99.90;;;;;;5012586;28;20042;-82
2023/04/11 14:08:48;;;;;;;11.02;2.42;;;12.40;99.90;;;;;;5012465;28;20042;-83
2023/04/11 14:11:14;;;;;;;9.32;2.20;;;11.90;99.90;;;;;;5012789;28;20046;-83
2023/04/11 14:13:39;;;;;;;10.30;2.38;;;11.60;99.90;;;;;;4994791;28;20038;-82
2023/04/11 14:16:05;;;;;;;9.32;2.20;;;11.50;99.90;;;;;;4995268;28;20567;-83
2023/04/11 14:18:31;;;;;;;10.85;2.25;;;11.70;99.90;;;;;;4995593;28;20564;-80
2023/04/11 14:20:59;;;;;;;9.65;2.30;;;11.90;99.90;;;;;;4994403;28;20095;-81
2023/04/11 14:23:25;;;;;;;11.57;2.25;;;12.20;99.90;;;;;;5013320;28;20050;-80
2023/04/11 14:25:51;;;;;;;9.43;1.80;;;12.60;99.90;;;;;;4998906;28;20038;-81
2023/04/11 14:28:17;;;;;;;10.98;2.13;;;12.50;99.90;;;;;;5015775;28;20045;-83
2023/04/11 14:30:42;;;;;;;10.02;2.17;;;12.30;99.90;;;;;;4999080;28;20058;-82
2023/04/11 14:33:08;;;;;;;9.15;2.08;;;12.20;99.90;;;;;;5000317;28;20124;-81
2023/04/11 14:35:33;;;;;;;8.20;2.20;;;11.80;99.90;;;;;;5019197;28;20050;-83
2023/04/11 14:38:01;;;;;;;9.10;2.15;;;12.10;99.90;;;;;;5016640;28;20046;-83
2023/04/11 14:40:27;;;;;;;9.88;2.05;;;12.50;99.90;;;;;;5020329;28;20048;-83
2023/04/11 14:42:53;;;;;;;12.32;2.20;;;12.70;99.90;;;;;;5001962;28;20045;-83
2023/04/11 14:45:18;;;;;;;11.57;4.05;;;12.20;99.90;;;;;;5016878;28;20041;-84
2023/04/11 14:47:44;;;;;;;10.57;2.20;;;12.90;99.90;;;;;;5016398;28;20081;-83
2023/04/11 14:50:10;;;;;;;10.48;2.63;;;12.20;99.90;;;;;;5015789;28;20042;-83
2023/04/11 14:52:36;;;;;;;10.57;2.42;;;12.50;99.90;;;;;;5016554;28;20104;-82
2023/04/11 14:55:02;;;;;;;8.93;2.00;;;13.30;99.90;;;;;;5015731;28;20106;-82
2023/04/11 14:57:48;;;;;;;12.65;3.60;;;12.10;99.90;;;;;;4998938;28;20133;-82
2023/04/11 15:00:18;;;;;;;11.27;2.10;;;11.70;99.90;;;;;;4999073;28;20064;-82
2023/04/11 15:03:02;;;;;;;13.00;4.53;;;11.50;99.90;;;;;;4997990;28;20046;-83
2023/04/11 15:05:31;;;;;;;11.63;2.50;;;11.60;99.90;;;;;;5016453;28;20108;-84
2023/04/11 15:07:57;;;;;;;11.35;3.03;;;11.90;99.90;;;;;;4998099;28;20432;-85
2023/04/11 15:10:24;;;;;;;12.82;2.47;;;12.10;99.90;;;;;;4997403;28;20100;-83